METAR Formatted Surface Weather Observation
Issued by NWS

Home | Current Version | Previous Version | Text Only | Print | Product List | Glossary On
Versions: 1 2 3 4 5 6 7 8
000
SPZS31 NSTU 230046
MTRSPP
SPECI NSTU 230042Z VRB04KT 12SM TS FEW014CB SCT038 30/26 A2972 RMK
OCNL LTGIC W-NW TSB42 NW CB W-N=


USA.gov is the U.S. government's official web portal to all federal, state and local government web resources and services.